createdAt,value
2023-09-25T00:00:52.822Z,28.94
2023-09-25T00:01:52.780Z,28.83
2023-09-25T00:02:52.818Z,28.73
2023-09-25T00:03:52.849Z,28.62
2023-09-25T00:04:52.823Z,28.50
2023-09-25T00:05:52.777Z,28.45
2023-09-25T00:06:52.764Z,28.40
2023-09-25T00:07:52.769Z,28.36
2023-09-25T00:08:52.752Z,28.33
2023-09-25T00:09:52.758Z,28.08
2023-09-25T00:10:52.743Z,27.93
2023-09-25T00:11:52.749Z,27.80
2023-09-25T00:12:52.739Z,27.69
2023-09-25T00:13:52.747Z,27.71
2023-09-25T00:14:52.728Z,27.62
2023-09-25T00:15:52.830Z,27.59
2023-09-25T00:16:52.737Z,27.39
2023-09-25T00:17:52.823Z,27.27
2023-09-25T00:18:53.192Z,27.31
2023-09-25T00:19:52.727Z,27.13
2023-09-25T00:20:52.708Z,27.12
2023-09-25T00:21:52.710Z,27.12
2023-09-25T00:22:52.703Z,26.97
2023-09-25T00:23:52.714Z,26.75
2023-09-25T00:24:52.695Z,26.79
2023-09-25T00:25:52.699Z,26.68
2023-09-25T00:26:52.726Z,26.61
2023-09-25T00:27:52.771Z,26.47
2023-09-25T00:28:52.674Z,26.32
2023-09-25T00:29:52.688Z,26.38
2023-09-25T00:30:52.665Z,26.13
2023-09-25T00:31:52.673Z,25.76
2023-09-25T00:32:52.691Z,25.72
2023-09-25T00:33:52.741Z,25.72
2023-09-25T00:34:52.649Z,25.66
2023-09-25T00:35:52.657Z,25.56
2023-09-25T00:36:52.637Z,25.53
2023-09-25T00:37:52.644Z,25.36
2023-09-25T00:38:52.634Z,25.41
2023-09-25T00:39:52.637Z,25.44
2023-09-25T00:40:52.618Z,25.29
2023-09-25T00:41:52.623Z,25.11
2023-09-25T00:42:52.610Z,25.12
2023-09-25T00:43:52.617Z,25.16
2023-09-25T00:44:52.598Z,25.12
2023-09-25T00:45:52.855Z,24.98
2023-09-25T00:46:52.674Z,24.94
2023-09-25T00:47:52.636Z,24.94
2023-09-25T00:48:52.650Z,24.89
2023-09-25T00:49:52.580Z,24.90
2023-09-25T00:50:52.568Z,24.70
2023-09-25T00:51:52.573Z,24.66
2023-09-25T00:52:52.562Z,24.63
2023-09-25T00:53:52.563Z,24.60
2023-09-25T00:54:52.669Z,24.67
2023-09-25T00:55:52.552Z,24.63
2023-09-25T00:56:52.534Z,24.63
2023-09-25T00:57:52.537Z,24.60
2023-09-25T00:58:52.520Z,24.46
2023-09-25T00:59:52.528Z,24.36
2023-09-25T01:00:52.576Z,24.36
2023-09-25T01:01:52.516Z,24.36
2023-09-25T01:02:52.525Z,24.34
2023-09-25T01:03:52.555Z,24.37
2023-09-25T01:04:52.520Z,24.33
2023-09-25T01:05:52.492Z,24.34
2023-09-25T01:06:52.473Z,24.36
2023-09-25T01:07:52.494Z,24.24
2023-09-25T01:08:52.460Z,24.27
2023-09-25T01:09:52.457Z,24.18
2023-09-25T01:10:52.450Z,23.97
2023-09-25T01:11:52.454Z,23.97
2023-09-25T01:12:52.434Z,24.02
2023-09-25T01:13:52.443Z,24.02
2023-09-25T01:14:52.422Z,23.99
2023-09-25T01:15:52.427Z,23.90
2023-09-25T01:16:52.440Z,23.92
2023-09-25T01:17:52.432Z,23.89
2023-09-25T01:18:52.508Z,23.87
2023-09-25T01:19:52.407Z,23.79
2023-09-25T01:20:52.384Z,23.72
2023-09-25T01:21:52.396Z,23.75
2023-09-25T01:22:52.374Z,23.74
2023-09-25T01:23:52.379Z,23.74
2023-09-25T01:24:52.359Z,23.86
2023-09-25T01:25:52.366Z,23.92
2023-09-25T01:26:52.349Z,23.94
2023-09-25T01:27:52.363Z,23.92
2023-09-25T01:28:52.333Z,23.77
2023-09-25T01:29:52.338Z,23.75
2023-09-25T01:30:52.350Z,23.74
2023-09-25T01:31:52.326Z,23.64
2023-09-25T01:32:52.417Z,23.56
2023-09-25T01:33:52.366Z,23.59
2023-09-25T01:34:52.295Z,23.47
2023-09-25T01:35:52.302Z,23.52
2023-09-25T01:36:52.279Z,23.49
2023-09-25T01:37:52.293Z,23.45
2023-09-25T01:38:52.267Z,23.45
2023-09-25T01:39:52.273Z,23.44
2023-09-25T01:40:52.251Z,23.52
2023-09-25T01:41:52.254Z,23.59
2023-09-25T01:42:52.244Z,23.69
2023-09-25T01:43:52.237Z,23.72
2023-09-25T01:44:52.225Z,23.71
2023-09-25T01:45:52.299Z,23.75
2023-09-25T01:46:52.226Z,23.68
2023-09-25T01:47:52.699Z,23.71
2023-09-25T01:48:52.492Z,23.59
2023-09-25T01:49:52.205Z,23.71
2023-09-25T01:50:52.196Z,23.62
2023-09-25T01:51:52.182Z,23.60
2023-09-25T01:52:52.227Z,23.71
2023-09-25T01:53:52.173Z,23.60
2023-09-25T01:54:52.160Z,23.72
2023-09-25T01:55:52.169Z,23.64
2023-09-25T01:56:52.145Z,23.77
2023-09-25T01:57:52.151Z,23.75
2023-09-25T01:58:52.133Z,23.60
2023-09-25T01:59:52.131Z,23.60
2023-09-25T02:00:52.116Z,23.64
2023-09-25T02:01:52.181Z,23.71
2023-09-25T02:02:52.203Z,23.78
2023-09-25T02:03:52.236Z,23.75
2023-09-25T02:04:52.290Z,23.82
2023-09-25T02:05:52.091Z,23.77
2023-09-25T02:06:52.086Z,23.75
2023-09-25T02:07:52.087Z,23.77
2023-09-25T02:08:52.065Z,23.79
2023-09-25T02:09:52.075Z,23.81
2023-09-25T02:10:52.049Z,23.81
2023-09-25T02:11:52.058Z,23.75
2023-09-25T02:12:52.037Z,23.78
2023-09-25T02:13:52.045Z,23.89
2023-09-25T02:14:52.025Z,23.84
2023-09-25T02:15:52.068Z,23.93
2023-09-25T02:16:52.011Z,23.87
2023-09-25T02:17:52.069Z,23.86
2023-09-25T02:18:52.267Z,23.87
2023-09-25T02:19:52.006Z,23.72
2023-09-25T02:20:51.981Z,23.79
2023-09-25T02:21:51.992Z,23.75
2023-09-25T02:22:51.971Z,23.79
2023-09-25T02:23:51.978Z,23.77
2023-09-25T02:24:51.957Z,23.77
2023-09-25T02:25:51.965Z,23.72
2023-09-25T02:26:51.943Z,23.68
2023-09-25T02:27:51.947Z,23.71
2023-09-25T02:28:52.018Z,23.71
2023-09-25T02:29:51.936Z,23.60
2023-09-25T02:30:51.943Z,23.71
2023-09-25T02:31:51.954Z,23.72
2023-09-25T02:32:51.939Z,23.69
2023-09-25T02:33:52.106Z,23.74
2023-09-25T02:34:51.892Z,23.75
2023-09-25T02:35:51.896Z,23.63
2023-09-25T02:36:51.874Z,23.60
2023-09-25T02:37:51.875Z,23.63
2023-09-25T02:38:51.866Z,23.71
2023-09-25T02:39:51.868Z,23.60
2023-09-25T02:40:51.849Z,23.71
2023-09-25T02:41:51.850Z,23.72
2023-09-25T02:42:51.860Z,23.62
2023-09-25T02:43:51.843Z,23.74
2023-09-25T02:44:51.821Z,23.64
2023-09-25T02:45:51.873Z,23.64
2023-09-25T02:46:51.808Z,23.72
2023-09-25T02:47:51.859Z,23.59
2023-09-25T02:48:51.957Z,23.59
2023-09-25T02:49:51.810Z,23.59
2023-09-25T02:50:51.786Z,23.62
2023-09-25T02:51:51.795Z,23.69
2023-09-25T02:52:51.775Z,23.71
2023-09-25T02:53:51.776Z,23.62
2023-09-25T02:54:51.778Z,23.71
2023-09-25T02:55:51.779Z,23.64
2023-09-25T02:56:51.754Z,23.71
2023-09-25T02:57:51.806Z,23.69
2023-09-25T02:58:52.034Z,23.71
2023-09-25T02:59:51.738Z,23.67
2023-09-25T03:00:51.717Z,23.75
2023-09-25T03:01:51.725Z,23.68
2023-09-25T03:02:51.745Z,23.64
2023-09-25T03:03:51.745Z,23.72
2023-09-25T03:04:51.751Z,23.62
2023-09-25T03:05:51.691Z,23.74
2023-09-25T03:06:51.682Z,23.67
2023-09-25T03:07:51.698Z,23.71
2023-09-25T03:08:51.686Z,23.74
2023-09-25T03:09:51.676Z,23.74
2023-09-25T03:10:51.657Z,23.67
2023-09-25T03:11:51.656Z,23.75
2023-09-25T03:12:51.727Z,23.78
2023-09-25T03:13:51.647Z,23.81
2023-09-25T03:14:51.630Z,23.77
2023-09-25T03:15:51.800Z,23.74
2023-09-25T03:16:51.612Z,23.71
2023-09-25T03:17:51.658Z,23.71
2023-09-25T03:18:51.920Z,23.67
2023-09-25T03:19:51.596Z,23.68
2023-09-25T03:20:51.585Z,23.78
2023-09-25T03:21:51.589Z,23.72
2023-09-25T03:22:51.586Z,23.68
2023-09-25T03:23:52.947Z,23.69
2023-09-25T03:24:51.561Z,23.74
2023-09-25T03:25:51.560Z,23.63
2023-09-25T03:26:51.545Z,23.63
2023-09-25T03:27:51.566Z,23.71
2023-09-25T03:28:51.706Z,23.63
2023-09-25T03:29:51.536Z,23.63
2023-09-25T03:30:51.618Z,23.53
2023-09-25T03:31:51.549Z,23.64
2023-09-25T03:32:51.542Z,23.68
2023-09-25T03:33:51.545Z,23.67
2023-09-25T03:34:51.505Z,23.72
2023-09-25T03:35:51.492Z,23.74
2023-09-25T03:36:51.561Z,23.74
2023-09-25T03:37:51.476Z,23.74
2023-09-25T03:38:51.481Z,23.71
2023-09-25T03:39:51.456Z,23.67
2023-09-25T03:40:51.465Z,23.63
2023-09-25T03:41:51.446Z,23.71
2023-09-25T03:42:51.479Z,23.74
2023-09-25T03:43:51.436Z,23.74
2023-09-25T03:44:51.434Z,23.69
2023-09-25T03:45:51.452Z,23.67
2023-09-25T03:46:51.485Z,23.57
2023-09-25T03:47:51.435Z,23.63
2023-09-25T03:48:51.591Z,23.64
2023-09-25T03:49:51.392Z,23.71
2023-09-25T03:50:51.392Z,23.74
2023-09-25T03:51:51.423Z,23.67
2023-09-25T03:52:51.377Z,23.71
2023-09-25T03:53:53.306Z,23.69
2023-09-25T03:54:51.373Z,23.62
2023-09-25T03:55:51.353Z,23.74
2023-09-25T03:56:51.360Z,23.62
2023-09-25T03:57:51.375Z,23.52
2023-09-25T03:58:51.509Z,23.62
2023-09-25T03:59:51.325Z,23.57
2023-09-25T04:00:51.395Z,23.49
2023-09-25T04:01:51.310Z,23.42
2023-09-25T04:02:51.350Z,23.47
2023-09-25T04:03:51.404Z,23.45
2023-09-25T04:04:51.426Z,23.45
2023-09-25T04:05:51.283Z,23.50
2023-09-25T04:06:51.317Z,23.59
2023-09-25T04:07:51.285Z,23.67
2023-09-25T04:08:51.418Z,23.57
2023-09-25T04:09:51.295Z,23.64
2023-09-25T04:10:51.268Z,23.67
2023-09-25T04:11:51.244Z,23.71
2023-09-25T04:12:51.295Z,23.74
2023-09-25T04:13:51.228Z,23.77
2023-09-25T04:14:51.232Z,23.59
2023-09-25T04:15:51.227Z,23.63
2023-09-25T04:16:51.258Z,23.68
2023-09-25T04:17:51.311Z,23.77
2023-09-25T04:18:51.451Z,23.62
2023-09-25T04:19:51.292Z,23.67
2023-09-25T04:20:51.274Z,23.74
2023-09-25T04:21:51.216Z,23.68
2023-09-25T04:22:51.232Z,23.60
2023-09-25T04:23:51.162Z,23.77
2023-09-25T04:24:51.224Z,23.75
2023-09-25T04:25:51.161Z,23.64
2023-09-25T04:26:51.159Z,23.67
2023-09-25T04:27:51.163Z,23.62
2023-09-25T04:28:51.262Z,23.60
2023-09-25T04:29:51.122Z,23.49
2023-09-25T04:30:51.144Z,23.44
2023-09-25T04:31:51.169Z,23.52
2023-09-25T04:32:51.283Z,23.52
2023-09-25T04:33:51.122Z,23.42
2023-09-25T04:34:51.113Z,23.49
2023-09-25T04:35:51.081Z,23.52
2023-09-25T04:36:51.101Z,23.49
2023-09-25T04:37:51.070Z,23.49
2023-09-25T04:38:51.204Z,23.42
2023-09-25T04:39:51.078Z,23.49
2023-09-25T04:40:51.058Z,23.47
2023-09-25T04:41:51.039Z,23.50
2023-09-25T04:42:51.172Z,23.53
2023-09-25T04:43:51.027Z,23.64
2023-09-25T04:44:51.026Z,23.56
2023-09-25T04:45:51.112Z,23.53
2023-09-25T04:46:51.018Z,23.67
2023-09-25T04:47:51.056Z,23.52
2023-09-25T04:48:51.285Z,23.49
2023-09-25T04:49:50.986Z,23.45
2023-09-25T04:50:50.989Z,23.53
2023-09-25T04:51:51.035Z,23.53
2023-09-25T04:52:51.080Z,23.52
2023-09-25T04:53:50.957Z,23.45
2023-09-25T04:54:51.015Z,23.44
2023-09-25T04:55:50.945Z,23.42
2023-09-25T04:56:50.949Z,23.50
2023-09-25T04:57:51.029Z,23.50
2023-09-25T04:58:51.125Z,23.50
2023-09-25T04:59:50.919Z,23.47
2023-09-25T05:00:51.014Z,23.44
2023-09-25T05:01:50.922Z,23.45
2023-09-25T05:02:51.037Z,23.50
2023-09-25T05:03:50.937Z,23.50
2023-09-25T05:04:50.906Z,23.47
2023-09-25T05:05:50.907Z,23.49
2023-09-25T05:06:50.953Z,23.53
2023-09-25T05:07:50.859Z,23.49
2023-09-25T05:08:50.865Z,23.44
2023-09-25T05:09:50.865Z,23.41
2023-09-25T05:10:50.855Z,23.52
2023-09-25T05:11:50.837Z,23.42
2023-09-25T05:12:51.017Z,23.41
2023-09-25T05:13:50.825Z,23.47
2023-09-25T05:14:50.824Z,23.45
2023-09-25T05:15:50.886Z,23.53
2023-09-25T05:16:50.835Z,23.59
2023-09-25T05:17:50.903Z,23.60
2023-09-25T05:18:50.987Z,23.52
2023-09-25T05:19:50.776Z,23.49
2023-09-25T05:20:50.785Z,23.52
2023-09-25T05:21:50.784Z,23.53
2023-09-25T05:22:50.762Z,23.47
2023-09-25T05:23:50.750Z,23.50
2023-09-25T05:24:50.758Z,23.45
2023-09-25T05:25:50.734Z,23.34
2023-09-25T05:26:50.743Z,23.22
2023-09-25T05:27:50.837Z,23.25
2023-09-25T05:28:50.770Z,23.23
2023-09-25T05:29:50.707Z,23.19
2023-09-25T05:30:50.746Z,23.18
2023-09-25T05:31:50.745Z,23.23
2023-09-25T05:32:50.931Z,23.29
2023-09-25T05:33:50.723Z,23.22
2023-09-25T05:34:50.685Z,23.22
2023-09-25T05:35:52.415Z,23.23
2023-09-25T05:36:50.688Z,23.22
2023-09-25T05:37:51.174Z,23.23
2023-09-25T05:38:51.037Z,23.25
2023-09-25T05:39:50.668Z,23.29
2023-09-25T05:40:50.642Z,23.29
2023-09-25T05:41:50.628Z,23.31
2023-09-25T05:42:50.794Z,23.22
2023-09-25T05:43:50.613Z,23.19
2023-09-25T05:44:51.057Z,23.11
2023-09-25T05:45:50.625Z,23.12
2023-09-25T05:46:50.646Z,23.14
2023-09-25T05:47:50.658Z,23.09
2023-09-25T05:48:50.878Z,23.01
2023-09-25T05:49:50.570Z,23.07
2023-09-25T05:50:51.021Z,23.18
2023-09-25T05:51:50.600Z,23.09
2023-09-25T05:52:50.566Z,23.09
2023-09-25T05:53:50.537Z,23.15
2023-09-25T05:54:50.643Z,23.00
2023-09-25T05:55:50.522Z,23.12
2023-09-25T05:56:50.529Z,22.96
2023-09-25T05:57:50.560Z,22.88
2023-09-25T05:58:50.681Z,22.88
2023-09-25T05:59:50.501Z,22.91
2023-09-25T06:00:50.591Z,22.88
2023-09-25T06:01:50.523Z,22.84
2023-09-25T06:02:50.515Z,22.84
2023-09-25T06:03:50.541Z,22.93
2023-09-25T06:04:50.545Z,22.86
2023-09-25T06:05:50.453Z,22.86
2023-09-25T06:06:50.587Z,22.86
2023-09-25T06:07:50.435Z,22.84
2023-09-25T06:08:50.774Z,22.93
2023-09-25T06:09:50.466Z,22.89
2023-09-25T06:10:50.426Z,22.96
2023-09-25T06:11:50.408Z,22.86
2023-09-25T06:12:50.454Z,22.86
2023-09-25T06:13:50.394Z,22.81
2023-09-25T06:14:50.395Z,22.82
2023-09-25T06:15:50.403Z,22.76
2023-09-25T06:16:50.457Z,22.85
2023-09-25T06:17:50.377Z,22.75
2023-09-25T06:18:50.563Z,22.74
2023-09-25T06:19:50.350Z,22.72
2023-09-25T06:20:50.355Z,22.70
2023-09-25T06:21:50.357Z,22.70
2023-09-25T06:22:50.340Z,22.70
2023-09-25T06:23:50.317Z,22.70
2023-09-25T06:24:50.381Z,22.82
2023-09-25T06:25:50.307Z,22.74
2023-09-25T06:26:50.309Z,22.76
2023-09-25T06:27:50.338Z,22.76
2023-09-25T06:28:50.446Z,22.88
2023-09-25T06:29:50.272Z,22.86
2023-09-25T06:30:50.342Z,22.89
2023-09-25T06:32:00.243Z,22.88
2023-09-25T06:32:50.323Z,22.97
2023-09-25T06:33:50.320Z,22.99
2023-09-25T06:34:50.331Z,22.85
2023-09-25T06:35:50.227Z,22.86
2023-09-25T06:36:50.262Z,22.79
2023-09-25T06:37:50.313Z,22.70
2023-09-25T06:38:50.401Z,22.75
2023-09-25T06:39:50.227Z,22.75
2023-09-25T06:40:50.200Z,22.78
2023-09-25T06:41:50.259Z,22.70
2023-09-25T06:42:50.208Z,22.69
2023-09-25T06:43:50.213Z,22.63
2023-09-25T06:44:50.162Z,22.66
2023-09-25T06:45:50.189Z,22.66
2023-09-25T06:46:50.170Z,22.52
2023-09-25T06:47:50.166Z,22.45
2023-09-25T06:48:50.382Z,22.38
2023-09-25T06:49:50.117Z,22.30
2023-09-25T06:50:50.118Z,22.42
2023-09-25T06:51:50.193Z,22.38
2023-09-25T06:52:50.110Z,22.29
2023-09-25T06:53:50.138Z,22.31
2023-09-25T06:54:50.118Z,22.17
2023-09-25T06:55:50.072Z,22.15
2023-09-25T06:56:50.078Z,22.11
2023-09-25T06:57:50.104Z,22.29
2023-09-25T06:58:50.178Z,22.15
2023-09-25T06:59:50.038Z,22.26
2023-09-25T07:00:56.947Z,22.29
2023-09-25T07:01:50.117Z,22.30
2023-09-25T07:02:50.076Z,22.27
2023-09-25T07:03:50.189Z,22.31
2023-09-25T07:04:50.126Z,22.30
2023-09-25T07:05:50.052Z,22.19
2023-09-25T07:06:50.034Z,22.24
2023-09-25T07:07:50.028Z,22.29
2023-09-25T07:08:50.179Z,22.36
2023-09-25T07:09:50.034Z,22.41
2023-09-25T07:10:50.022Z,22.31
2023-09-25T07:11:49.946Z,22.36
2023-09-25T07:12:49.986Z,22.41
2023-09-25T07:13:50.040Z,22.36
2023-09-25T07:14:49.956Z,22.33
2023-09-25T07:15:49.998Z,22.17
2023-09-25T07:16:49.959Z,22.33
2023-09-25T07:17:49.941Z,22.33
2023-09-25T07:18:50.413Z,22.24
2023-09-25T07:19:49.881Z,22.27
2023-09-25T07:20:49.896Z,22.30
2023-09-25T07:21:49.943Z,22.20
2023-09-25T07:22:49.873Z,22.20
2023-09-25T07:23:49.876Z,22.17
2023-09-25T07:24:49.889Z,22.01
2023-09-25T07:25:49.837Z,22.02
2023-09-25T07:26:49.849Z,22.02
2023-09-25T07:27:49.838Z,22.02
2023-09-25T07:28:49.943Z,22.06
2023-09-25T07:29:49.824Z,22.04
2023-09-25T07:30:49.895Z,21.94
2023-09-25T07:31:49.820Z,22.04
2023-09-25T07:32:49.838Z,22.02
2023-09-25T07:33:49.898Z,21.96
2023-09-25T07:34:49.810Z,21.89
2023-09-25T07:35:49.758Z,22.02
2023-09-25T07:36:49.772Z,21.85
2023-09-25T07:37:49.747Z,21.98
2023-09-25T07:38:50.022Z,21.93
2023-09-25T07:39:49.834Z,21.96
2023-09-25T07:40:59.289Z,22.05
2023-09-25T07:41:49.720Z,21.93
2023-09-25T07:42:49.817Z,21.93
2023-09-25T07:43:57.837Z,21.91
2023-09-25T07:44:49.716Z,21.90
2023-09-25T07:45:49.826Z,21.81
2023-09-25T07:46:49.758Z,21.81
2023-09-25T07:47:49.761Z,21.83
2023-09-25T07:48:49.928Z,21.89
2023-09-25T07:49:49.768Z,21.90
2023-09-25T07:50:49.650Z,21.75
2023-09-25T07:51:49.663Z,21.85
2023-09-25T07:52:49.636Z,21.91
2023-09-25T07:53:49.645Z,21.79
2023-09-25T07:54:49.737Z,21.79
2023-09-25T07:55:49.675Z,21.82
2023-09-25T07:56:49.602Z,21.85
2023-09-25T07:57:49.632Z,21.89
2023-09-25T07:58:50.026Z,21.98
2023-09-25T07:59:49.610Z,21.90
2023-09-25T08:00:51.694Z,21.90
2023-09-25T08:01:49.599Z,21.99
2023-09-25T08:02:49.590Z,22.01
2023-09-25T08:03:49.668Z,21.99
2023-09-25T08:04:49.571Z,22.04
2023-09-25T08:05:49.596Z,22.04
2023-09-25T08:06:49.576Z,22.04
2023-09-25T08:07:49.537Z,21.98
2023-09-25T08:08:49.717Z,22.01
2023-09-25T08:09:49.635Z,22.02
2023-09-25T08:10:49.495Z,22.06
2023-09-25T08:11:49.491Z,22.05
2023-09-25T08:12:49.535Z,22.11
2023-09-25T08:13:49.488Z,22.12
2023-09-25T08:14:49.459Z,22.19
2023-09-25T08:15:49.625Z,22.12
2023-09-25T08:16:49.503Z,22.15
2023-09-25T08:17:49.511Z,22.20
2023-09-25T08:18:49.702Z,22.12
2023-09-25T08:19:49.429Z,22.15
2023-09-25T08:20:49.412Z,22.15
2023-09-25T08:21:49.501Z,22.20
2023-09-25T08:22:49.397Z,22.21
2023-09-25T08:23:49.402Z,22.15
2023-09-25T08:24:49.399Z,22.19
2023-09-25T08:25:49.384Z,22.21
2023-09-25T08:26:49.469Z,22.24
2023-09-25T08:27:49.478Z,22.30
2023-09-25T08:28:49.627Z,22.31
2023-09-25T08:29:49.352Z,22.31
2023-09-25T08:30:49.395Z,22.35
2023-09-25T08:31:49.357Z,22.29
2023-09-25T08:32:49.356Z,22.33
2023-09-25T08:33:49.331Z,22.30
2023-09-25T08:34:49.301Z,22.27
2023-09-25T08:35:49.308Z,22.38
2023-09-25T08:36:49.341Z,22.30
2023-09-25T08:37:49.368Z,22.42
2023-09-25T08:38:49.414Z,22.27
2023-09-25T08:39:49.345Z,22.39
2023-09-25T08:40:49.260Z,22.41
2023-09-25T08:41:49.264Z,22.38
2023-09-25T08:42:51.239Z,22.44
2023-09-25T08:43:49.244Z,22.42
2023-09-25T08:44:49.230Z,22.39
2023-09-25T08:45:49.446Z,22.46
2023-09-25T08:46:49.270Z,22.35
2023-09-25T08:47:49.252Z,22.42
2023-09-25T08:48:49.502Z,22.41
2023-09-25T08:49:49.211Z,22.41
2023-09-25T08:50:49.189Z,22.42
2023-09-25T08:51:49.244Z,22.45
2023-09-25T08:52:49.395Z,22.39
2023-09-25T08:53:49.162Z,22.45
2023-09-25T08:54:50.282Z,22.41
2023-09-25T08:55:49.161Z,22.42
2023-09-25T08:56:49.135Z,22.36
2023-09-25T08:57:49.173Z,22.46
2023-09-25T08:58:49.259Z,22.42
2023-09-25T08:59:49.125Z,22.42
2023-09-25T09:00:49.148Z,22.38
2023-09-25T09:01:49.157Z,22.41
2023-09-25T09:02:49.256Z,22.39
2023-09-25T09:03:49.209Z,22.31
2023-09-25T09:04:49.158Z,22.44
2023-09-25T09:05:49.077Z,22.38
2023-09-25T09:06:49.092Z,22.33
2023-09-25T09:07:49.117Z,22.41
2023-09-25T09:08:49.194Z,22.35
2023-09-25T09:09:49.066Z,22.35
2023-09-25T09:10:49.029Z,22.41
2023-09-25T09:11:49.035Z,22.36
2023-09-25T09:13:01.074Z,22.42
2023-09-25T09:13:49.027Z,22.52
2023-09-25T09:14:48.996Z,22.44
2023-09-25T09:15:49.133Z,22.46
2023-09-25T09:16:49.031Z,22.44
2023-09-25T09:17:49.124Z,22.48
2023-09-25T09:18:49.343Z,22.44
2023-09-25T09:19:48.973Z,22.46
2023-09-25T09:20:48.970Z,22.48
2023-09-25T09:21:49.031Z,22.52
2023-09-25T09:22:49.238Z,22.48
2023-09-25T09:23:48.940Z,22.45
2023-09-25T09:24:48.954Z,22.52
2023-09-25T09:25:48.949Z,22.49
2023-09-25T09:26:48.910Z,22.56
2023-09-25T09:27:48.974Z,22.59
2023-09-25T09:28:49.177Z,22.66
2023-09-25T09:29:48.895Z,22.64
2023-09-25T09:30:48.913Z,22.63
2023-09-25T09:31:48.874Z,22.67
2023-09-25T09:32:49.175Z,22.70
2023-09-25T09:33:48.990Z,22.64
2023-09-25T09:34:48.861Z,22.69
2023-09-25T09:35:48.853Z,22.75
2023-09-25T09:36:48.881Z,22.72
2023-09-25T09:37:48.829Z,22.72
2023-09-25T09:38:49.020Z,22.64
2023-09-25T09:39:48.875Z,22.63
2023-09-25T09:40:48.800Z,22.59
2023-09-25T09:41:48.802Z,22.56
2023-09-25T09:42:48.974Z,22.64
2023-09-25T09:43:48.915Z,22.69
2023-09-25T09:44:48.784Z,22.67
2023-09-25T09:45:48.870Z,22.56
2023-09-25T09:46:48.833Z,22.63
2023-09-25T09:47:48.883Z,22.64
2023-09-25T09:48:49.037Z,22.69
2023-09-25T09:49:48.747Z,22.74
2023-09-25T09:50:48.730Z,22.69
2023-09-25T09:51:48.834Z,22.72
2023-09-25T09:52:48.963Z,22.76
2023-09-25T09:53:48.729Z,22.75
2023-09-25T09:54:48.718Z,22.79
2023-09-25T09:55:48.705Z,22.86
2023-09-25T09:56:48.680Z,22.88
2023-09-25T09:57:48.688Z,22.85
2023-09-25T09:58:49.019Z,22.99
2023-09-25T09:59:48.672Z,22.97
2023-09-25T10:00:48.728Z,23.04
2023-09-25T10:01:48.773Z,22.91
2023-09-25T10:02:48.877Z,22.96
2023-09-25T10:03:48.796Z,22.96
2023-09-25T10:04:48.771Z,22.96
2023-09-25T10:05:48.647Z,23.03
2023-09-25T10:06:48.667Z,23.00
2023-09-25T10:07:48.618Z,23.12
2023-09-25T10:08:48.819Z,23.01
2023-09-25T10:09:48.631Z,22.97
2023-09-25T10:10:48.587Z,23.00
2023-09-25T10:11:48.588Z,23.07
2023-09-25T10:12:48.604Z,23.06
2023-09-25T10:13:48.575Z,23.15
2023-09-25T10:14:48.553Z,23.07
2023-09-25T10:15:48.616Z,23.14
2023-09-25T10:16:48.602Z,23.25
2023-09-25T10:17:48.573Z,23.26
2023-09-25T10:19:48.535Z,23.34
2023-09-25T10:20:48.512Z,23.41
2023-09-25T10:21:48.584Z,23.49
2023-09-25T10:22:48.501Z,23.47
2023-09-25T10:23:48.965Z,23.53
2023-09-25T10:24:48.545Z,23.41
2023-09-25T10:25:48.489Z,23.56
2023-09-25T10:26:48.473Z,23.63
2023-09-25T10:27:48.511Z,23.50
2023-09-25T10:28:48.463Z,23.50
2023-09-25T10:29:48.454Z,23.50
2023-09-25T10:30:48.494Z,23.54
2023-09-25T10:31:48.497Z,23.63
2023-09-25T10:32:48.444Z,23.62
2023-09-25T10:33:48.623Z,23.57
2023-09-25T10:34:48.429Z,23.62
2023-09-25T10:35:48.419Z,23.63
2023-09-25T10:36:48.409Z,23.69
2023-09-25T10:37:48.408Z,23.60
2023-09-25T10:38:48.389Z,23.69
2023-09-25T10:39:48.424Z,23.79
2023-09-25T10:40:48.380Z,23.81
2023-09-25T10:41:48.623Z,23.77
2023-09-25T10:42:48.386Z,23.81
2023-09-25T10:43:48.655Z,23.75
2023-09-25T10:44:48.346Z,23.75
2023-09-25T10:45:48.461Z,23.79
2023-09-25T10:46:48.370Z,23.87
2023-09-25T10:47:48.428Z,23.86
2023-09-25T10:48:48.479Z,23.86
2023-09-25T10:49:48.321Z,23.92
2023-09-25T10:50:48.313Z,23.97
2023-09-25T10:51:48.382Z,24.06
2023-09-25T10:52:48.294Z,23.93
2023-09-25T10:53:48.514Z,23.82
2023-09-25T10:54:48.321Z,23.92
2023-09-25T10:55:48.370Z,23.99
2023-09-25T10:56:48.269Z,24.02
2023-09-25T10:57:50.358Z,23.97
2023-09-25T10:58:48.377Z,24.09
2023-09-25T10:59:48.271Z,24.08
2023-09-25T11:00:48.388Z,24.21
2023-09-25T11:01:48.293Z,24.18
2023-09-25T11:02:48.369Z,24.24
2023-09-25T11:03:48.363Z,24.19
2023-09-25T11:04:48.367Z,24.23
2023-09-25T11:05:48.236Z,24.21
2023-09-25T11:06:48.224Z,24.19
2023-09-25T11:07:48.211Z,24.18
2023-09-25T11:08:48.193Z,24.18
2023-09-25T11:09:48.244Z,24.16
2023-09-25T11:10:48.234Z,24.27
2023-09-25T11:11:48.473Z,24.31
2023-09-25T11:12:48.285Z,24.34
2023-09-25T11:13:48.355Z,24.33
2023-09-25T11:14:48.155Z,24.39
2023-09-25T11:15:48.193Z,24.41
2023-09-25T11:16:48.235Z,24.45
2023-09-25T11:17:48.178Z,24.48
2023-09-25T11:18:48.163Z,24.53
2023-09-25T11:19:48.155Z,24.52
2023-09-25T11:20:48.120Z,24.52
2023-09-25T11:21:48.428Z,24.36
2023-09-25T11:22:48.157Z,24.52
2023-09-25T11:23:48.270Z,24.56
2023-09-25T11:24:48.153Z,24.55
2023-09-25T11:25:48.116Z,24.59
2023-09-25T11:26:48.077Z,24.53
2023-09-25T11:27:48.169Z,24.55
2023-09-25T11:28:48.073Z,24.56
2023-09-25T11:29:48.075Z,24.53
2023-09-25T11:30:48.306Z,24.55
2023-09-25T11:32:02.094Z,24.61
2023-09-25T11:32:48.501Z,24.63
2023-09-25T11:33:48.219Z,24.68
2023-09-25T11:34:48.034Z,24.68
2023-09-25T11:35:48.037Z,24.75
2023-09-25T11:36:48.107Z,24.80
2023-09-25T11:37:49.298Z,24.92
2023-09-25T11:38:48.140Z,24.87
2023-09-25T11:39:48.066Z,24.87
2023-09-25T11:40:47.995Z,24.92
2023-09-25T11:41:48.045Z,24.97
2023-09-25T11:42:48.019Z,24.93
2023-09-25T11:43:48.361Z,24.98
2023-09-25T11:44:47.970Z,25.04
2023-09-25T11:45:48.011Z,24.99
2023-09-25T11:46:48.007Z,25.01
2023-09-25T11:47:48.007Z,24.90
2023-09-25T11:48:48.006Z,24.84
2023-09-25T11:49:47.946Z,24.84
2023-09-25T11:50:48.166Z,24.87
2023-09-25T11:51:48.010Z,24.90
2023-09-25T11:52:47.923Z,24.84
2023-09-25T11:53:47.973Z,24.89
2023-09-25T11:54:47.954Z,24.79
2023-09-25T11:55:47.927Z,24.77
2023-09-25T11:56:48.334Z,24.83
2023-09-25T11:57:47.976Z,24.87
2023-09-25T11:58:48.181Z,24.93
2023-09-25T11:59:47.911Z,25.01
2023-09-25T12:00:47.960Z,24.98
2023-09-25T12:01:47.933Z,25.34
2023-09-25T12:02:47.898Z,25.22
2023-09-25T12:03:48.161Z,25.14
2023-09-25T12:04:47.947Z,25.39
2023-09-25T12:05:47.854Z,25.41
2023-09-25T12:06:47.889Z,25.45
2023-09-25T12:07:47.836Z,25.49
2023-09-25T12:08:48.048Z,25.57
2023-09-25T12:09:47.854Z,25.53
2023-09-25T12:10:47.835Z,25.36
2023-09-25T12:11:47.817Z,25.36
2023-09-25T12:12:47.840Z,25.42
2023-09-25T12:13:47.877Z,25.48
2023-09-25T12:14:47.813Z,25.49
2023-09-25T12:15:47.843Z,25.56
2023-09-25T12:16:47.906Z,25.63
2023-09-25T12:17:49.950Z,25.59
2023-09-25T12:18:48.294Z,25.76
2023-09-25T12:19:47.768Z,25.89
2023-09-25T12:20:47.783Z,25.93
2023-09-25T12:21:47.805Z,26.09
2023-09-25T12:22:47.972Z,26.13
2023-09-25T12:23:48.141Z,26.24
2023-09-25T12:24:47.882Z,26.51
2023-09-25T12:25:47.739Z,26.50
2023-09-25T12:26:47.748Z,26.59
2023-09-25T12:27:47.744Z,26.53
2023-09-25T12:28:47.741Z,26.69
2023-09-25T12:29:47.726Z,26.69
2023-09-25T12:30:47.793Z,26.90
2023-09-25T12:31:47.778Z,26.83
2023-09-25T12:32:47.762Z,27.06
2023-09-25T12:33:47.767Z,27.12
2023-09-25T12:34:47.817Z,27.27
2023-09-25T12:35:47.694Z,27.42
2023-09-25T12:36:47.742Z,27.59
2023-09-25T12:37:47.685Z,27.78
2023-09-25T12:38:47.689Z,27.53
2023-09-25T12:39:47.707Z,27.58
2023-09-25T12:40:47.691Z,27.52
2023-09-25T12:41:47.684Z,27.59
2023-09-25T12:42:54.005Z,27.61
2023-09-25T12:43:47.661Z,27.48
2023-09-25T12:44:47.668Z,27.45
2023-09-25T12:45:47.668Z,27.65
2023-09-25T12:46:47.737Z,27.76
2023-09-25T12:47:47.767Z,27.91
2023-09-25T12:48:47.763Z,28.02
2023-09-25T12:49:47.682Z,28.30
2023-09-25T12:50:47.708Z,28.35
2023-09-25T12:51:47.681Z,28.54
2023-09-25T12:52:47.925Z,28.55
2023-09-25T12:53:47.660Z,28.76